Droitwich, United Kingdom
Current Conditions -  °F | °C
As of 3:20 PM on Wednesday 26 Nov 2014 (Local Time) from EGBB Reporting Station
Haze Haze  
Wind Chill: 42°   Ceiling: 200
Heat Index: 45°   Visibility: 1.3mi
Dew Point: 45°   Wind: 5mph
Humidity: 100%   Direction: 10°N
Pressure: 29.83"   Gusts: NA
Location:  52.27°N, 2.15°W
Report Text: EGBB 261520Z 01004KT 2200 BR BKN002 OVC005 07/07 Q1010
Loading
Personal Weather Stations






























Interactive Weather Map New forecast layout! Learn more

10-Day Weather Forecast

Advertisements
Track Severe Weather on mobile